sensor_id;sensor_type;location;lat;lon;timestamp;temperature;humidity
70986;DHT22;58645;43.068;25.610;2023-05-08T00:01:38;14.80;58.80
70986;DHT22;58645;43.068;25.610;2023-05-08T00:04:03;14.80;59.00
70986;DHT22;58645;43.068;25.610;2023-05-08T00:06:29;14.70;58.80
70986;DHT22;58645;43.068;25.610;2023-05-08T00:08:55;14.70;58.90
70986;DHT22;58645;43.068;25.610;2023-05-08T00:11:21;14.70;58.90
70986;DHT22;58645;43.068;25.610;2023-05-08T00:13:47;14.60;58.70
70986;DHT22;58645;43.068;25.610;2023-05-08T00:16:12;14.60;59.00
70986;DHT22;58645;43.068;25.610;2023-05-08T00:18:39;14.60;58.70
70986;DHT22;58645;43.068;25.610;2023-05-08T00:21:05;14.60;58.60
70986;DHT22;58645;43.068;25.610;2023-05-08T00:23:31;14.50;58.30
70986;DHT22;58645;43.068;25.610;2023-05-08T00:25:57;14.60;58.40
70986;DHT22;58645;43.068;25.610;2023-05-08T00:28:22;14.60;58.30
70986;DHT22;58645;43.068;25.610;2023-05-08T00:30:48;14.60;58.30
70986;DHT22;58645;43.068;25.610;2023-05-08T00:33:14;14.50;58.10
70986;DHT22;58645;43.068;25.610;2023-05-08T00:35:40;14.60;58.30
70986;DHT22;58645;43.068;25.610;2023-05-08T00:38:07;14.60;58.60
70986;DHT22;58645;43.068;25.610;2023-05-08T00:40:33;14.60;58.70
70986;DHT22;58645;43.068;25.610;2023-05-08T00:42:59;14.60;58.80
70986;DHT22;58645;43.068;25.610;2023-05-08T00:45:32;14.60;59.00
70986;DHT22;58645;43.068;25.610;2023-05-08T00:47:59;14.50;58.90
70986;DHT22;58645;43.068;25.610;2023-05-08T00:50:25;14.50;59.00
70986;DHT22;58645;43.068;25.610;2023-05-08T00:52:51;14.50;59.00
70986;DHT22;58645;43.068;25.610;2023-05-08T00:55:18;14.50;58.90
70986;DHT22;58645;43.068;25.610;2023-05-08T00:57:46;14.50;59.00
70986;DHT22;58645;43.068;25.610;2023-05-08T01:00:12;14.50;59.30
70986;DHT22;58645;43.068;25.610;2023-05-08T01:02:39;14.50;59.30
70986;DHT22;58645;43.068;25.610;2023-05-08T01:05:05;14.50;59.60
70986;DHT22;58645;43.068;25.610;2023-05-08T01:07:32;14.50;59.50
70986;DHT22;58645;43.068;25.610;2023-05-08T01:09:57;14.50;59.70
70986;DHT22;58645;43.068;25.610;2023-05-08T01:15:06;14.40;60.40
70986;DHT22;58645;43.068;25.610;2023-05-08T01:17:45;14.40;60.20
70986;DHT22;58645;43.068;25.610;2023-05-08T01:20:28;14.40;60.60
70986;DHT22;58645;43.068;25.610;2023-05-08T01:23:34;14.30;61.30
70986;DHT22;58645;43.068;25.610;2023-05-08T01:26:41;14.20;62.00
70986;DHT22;58645;43.068;25.610;2023-05-08T01:34:32;14.00;62.40
70986;DHT22;58645;43.068;25.610;2023-05-08T01:37:04;14.00;62.10
70986;DHT22;58645;43.068;25.610;2023-05-08T01:42:22;13.90;62.80
70986;DHT22;58645;43.068;25.610;2023-05-08T01:45:10;13.90;62.50
70986;DHT22;58645;43.068;25.610;2023-05-08T01:47:37;13.80;62.60
70986;DHT22;58645;43.068;25.610;2023-05-08T01:50:24;13.80;62.60
70986;DHT22;58645;43.068;25.610;2023-05-08T01:52:52;13.70;63.10
70986;DHT22;58645;43.068;25.610;2023-05-08T01:55:27;13.70;63.30
70986;DHT22;58645;43.068;25.610;2023-05-08T01:57:57;13.70;63.50
70986;DHT22;58645;43.068;25.610;2023-05-08T02:00:25;13.70;63.60
70986;DHT22;58645;43.068;25.610;2023-05-08T02:02:53;13.60;63.70
70986;DHT22;58645;43.068;25.610;2023-05-08T02:05:21;13.60;63.90
70986;DHT22;58645;43.068;25.610;2023-05-08T02:07:48;13.60;64.10
70986;DHT22;58645;43.068;25.610;2023-05-08T02:10:16;13.60;64.00
70986;DHT22;58645;43.068;25.610;2023-05-08T02:12:43;13.50;64.20
70986;DHT22;58645;43.068;25.610;2023-05-08T02:15:11;13.50;63.70
70986;DHT22;58645;43.068;25.610;2023-05-08T02:17:38;13.50;63.90
70986;DHT22;58645;43.068;25.610;2023-05-08T02:20:06;13.50;64.00
70986;DHT22;58645;43.068;25.610;2023-05-08T02:22:42;13.50;64.10
70986;DHT22;58645;43.068;25.610;2023-05-08T02:25:10;13.50;64.00
70986;DHT22;58645;43.068;25.610;2023-05-08T02:27:43;13.50;63.80
70986;DHT22;58645;43.068;25.610;2023-05-08T02:30:12;13.50;64.10
70986;DHT22;58645;43.068;25.610;2023-05-08T02:32:42;13.50;63.70
70986;DHT22;58645;43.068;25.610;2023-05-08T02:35:14;13.50;64.10
70986;DHT22;58645;43.068;25.610;2023-05-08T02:37:44;13.50;64.10
70986;DHT22;58645;43.068;25.610;2023-05-08T02:40:11;13.40;64.10
70986;DHT22;58645;43.068;25.610;2023-05-08T02:42:37;13.40;64.50
70986;DHT22;58645;43.068;25.610;2023-05-08T02:45:04;13.40;64.70
70986;DHT22;58645;43.068;25.610;2023-05-08T02:50:59;13.30;64.90
70986;DHT22;58645;43.068;25.610;2023-05-08T02:53:42;13.30;65.80
70986;DHT22;58645;43.068;25.610;2023-05-08T02:59:12;13.20;65.40
70986;DHT22;58645;43.068;25.610;2023-05-08T03:01:47;13.20;65.70
70986;DHT22;58645;43.068;25.610;2023-05-08T03:04:36;13.10;66.20
70986;DHT22;58645;43.068;25.610;2023-05-08T03:07:05;13.10;66.40
70986;DHT22;58645;43.068;25.610;2023-05-08T03:09:38;13.10;66.50
70986;DHT22;58645;43.068;25.610;2023-05-08T03:12:10;13.10;66.70
70986;DHT22;58645;43.068;25.610;2023-05-08T03:14:44;13.10;67.30
70986;DHT22;58645;43.068;25.610;2023-05-08T03:17:14;13.10;67.80
70986;DHT22;58645;43.068;25.610;2023-05-08T03:19:45;13.10;67.60
70986;DHT22;58645;43.068;25.610;2023-05-08T03:22:13;13.10;66.80
70986;DHT22;58645;43.068;25.610;2023-05-08T03:24:42;13.10;67.30
70986;DHT22;58645;43.068;25.610;2023-05-08T03:27:08;13.10;67.80
70986;DHT22;58645;43.068;25.610;2023-05-08T03:29:35;13.10;66.80
70986;DHT22;58645;43.068;25.610;2023-05-08T03:32:02;13.10;66.70
70986;DHT22;58645;43.068;25.610;2023-05-08T03:34:29;13.10;66.30
70986;DHT22;58645;43.068;25.610;2023-05-08T03:36:56;13.20;66.10
70986;DHT22;58645;43.068;25.610;2023-05-08T03:39:22;13.10;66.10
70986;DHT22;58645;43.068;25.610;2023-05-08T03:41:49;13.20;65.90
70986;DHT22;58645;43.068;25.610;2023-05-08T03:44:16;13.20;66.60
70986;DHT22;58645;43.068;25.610;2023-05-08T03:46:42;13.10;66.60
70986;DHT22;58645;43.068;25.610;2023-05-08T03:49:10;13.10;67.90
70986;DHT22;58645;43.068;25.610;2023-05-08T03:51:38;13.10;67.80
70986;DHT22;58645;43.068;25.610;2023-05-08T03:54:06;13.10;69.00
70986;DHT22;58645;43.068;25.610;2023-05-08T03:56:32;13.10;69.00
70986;DHT22;58645;43.068;25.610;2023-05-08T04:01:43;13.10;69.30
70986;DHT22;58645;43.068;25.610;2023-05-08T04:10:00;13.20;69.80
70986;DHT22;58645;43.068;25.610;2023-05-08T04:13:14;13.30;70.40
70986;DHT22;58645;43.068;25.610;2023-05-08T04:15:49;13.30;70.60
70986;DHT22;58645;43.068;25.610;2023-05-08T04:18:17;13.40;70.00
70986;DHT22;58645;43.068;25.610;2023-05-08T04:20:48;13.60;68.30
70986;DHT22;58645;43.068;25.610;2023-05-08T04:23:18;13.70;68.80
70986;DHT22;58645;43.068;25.610;2023-05-08T04:25:46;13.80;68.50
70986;DHT22;58645;43.068;25.610;2023-05-08T04:28:13;13.90;68.30
70986;DHT22;58645;43.068;25.610;2023-05-08T04:30:39;13.90;68.20
70986;DHT22;58645;43.068;25.610;2023-05-08T04:33:06;13.90;69.30
70986;DHT22;58645;43.068;25.610;2023-05-08T04:35:33;13.90;69.20
70986;DHT22;58645;43.068;25.610;2023-05-08T04:37:59;13.90;68.30
70986;DHT22;58645;43.068;25.610;2023-05-08T04:40:25;14.10;68.40
70986;DHT22;58645;43.068;25.610;2023-05-08T04:42:50;14.10;67.70
70986;DHT22;58645;43.068;25.610;2023-05-08T04:45:16;14.10;67.90
70986;DHT22;58645;43.068;25.610;2023-05-08T04:47:42;14.30;67.20
70986;DHT22;58645;43.068;25.610;2023-05-08T04:50:08;14.30;67.20
70986;DHT22;58645;43.068;25.610;2023-05-08T04:52:34;14.40;67.60
70986;DHT22;58645;43.068;25.610;2023-05-08T04:55:00;14.50;67.40
70986;DHT22;58645;43.068;25.610;2023-05-08T04:57:27;14.50;67.40
70986;DHT22;58645;43.068;25.610;2023-05-08T04:59:53;14.70;67.20
70986;DHT22;58645;43.068;25.610;2023-05-08T05:02:18;14.90;66.70
70986;DHT22;58645;43.068;25.610;2023-05-08T05:04:44;15.10;66.70
70986;DHT22;58645;43.068;25.610;2023-05-08T05:07:10;15.20;66.90
70986;DHT22;58645;43.068;25.610;2023-05-08T05:09:35;15.40;67.10
70986;DHT22;58645;43.068;25.610;2023-05-08T05:12:03;15.60;65.90
70986;DHT22;58645;43.068;25.610;2023-05-08T05:14:29;15.70;65.10
70986;DHT22;58645;43.068;25.610;2023-05-08T05:16:55;15.90;65.30
70986;DHT22;58645;43.068;25.610;2023-05-08T05:19:20;16.10;63.60
70986;DHT22;58645;43.068;25.610;2023-05-08T05:21:46;16.30;62.50
70986;DHT22;58645;43.068;25.610;2023-05-08T05:24:12;16.40;62.20
70986;DHT22;58645;43.068;25.610;2023-05-08T05:26:38;16.60;63.10
70986;DHT22;58645;43.068;25.610;2023-05-08T05:29:03;17.00;62.90
70986;DHT22;58645;43.068;25.610;2023-05-08T05:31:29;17.20;62.00
70986;DHT22;58645;43.068;25.610;2023-05-08T05:33:55;17.40;61.20
70986;DHT22;58645;43.068;25.610;2023-05-08T05:36:21;17.50;60.80
70986;DHT22;58645;43.068;25.610;2023-05-08T05:38:47;17.50;60.60
70986;DHT22;58645;43.068;25.610;2023-05-08T05:41:12;17.60;59.00
70986;DHT22;58645;43.068;25.610;2023-05-08T05:43:38;18.00;58.20
70986;DHT22;58645;43.068;25.610;2023-05-08T05:46:08;18.20;57.20
70986;DHT22;58645;43.068;25.610;2023-05-08T05:48:34;18.10;58.40
70986;DHT22;58645;43.068;25.610;2023-05-08T05:51:01;18.20;58.10
70986;DHT22;58645;43.068;25.610;2023-05-08T05:53:28;18.40;58.00
70986;DHT22;58645;43.068;25.610;2023-05-08T05:55:53;18.50;56.70
70986;DHT22;58645;43.068;25.610;2023-05-08T05:58:19;18.70;57.50
70986;DHT22;58645;43.068;25.610;2023-05-08T06:00:45;18.80;56.40
70986;DHT22;58645;43.068;25.610;2023-05-08T06:03:12;19.00;55.60
70986;DHT22;58645;43.068;25.610;2023-05-08T06:05:39;19.30;55.60
70986;DHT22;58645;43.068;25.610;2023-05-08T06:08:05;19.80;55.80
70986;DHT22;58645;43.068;25.610;2023-05-08T06:10:32;20.10;54.10
70986;DHT22;58645;43.068;25.610;2023-05-08T06:12:57;20.70;53.10
70986;DHT22;58645;43.068;25.610;2023-05-08T06:15:23;20.80;52.10
70986;DHT22;58645;43.068;25.610;2023-05-08T06:17:49;21.00;52.20
70986;DHT22;58645;43.068;25.610;2023-05-08T06:20:14;21.70;49.80
70986;DHT22;58645;43.068;25.610;2023-05-08T06:22:40;22.40;48.80
70986;DHT22;58645;43.068;25.610;2023-05-08T06:25:07;22.50;48.70
70986;DHT22;58645;43.068;25.610;2023-05-08T06:27:34;22.70;47.90
70986;DHT22;58645;43.068;25.610;2023-05-08T06:30:01;22.90;46.90
70986;DHT22;58645;43.068;25.610;2023-05-08T06:32:26;23.20;47.30
70986;DHT22;58645;43.068;25.610;2023-05-08T06:34:52;23.20;46.40
70986;DHT22;58645;43.068;25.610;2023-05-08T06:37:18;23.00;45.80
70986;DHT22;58645;43.068;25.610;2023-05-08T06:39:43;23.00;46.00
70986;DHT22;58645;43.068;25.610;2023-05-08T06:42:09;23.10;46.50
70986;DHT22;58645;43.068;25.610;2023-05-08T06:44:35;23.30;46.50
70986;DHT22;58645;43.068;25.610;2023-05-08T06:47:01;23.60;45.40
70986;DHT22;58645;43.068;25.610;2023-05-08T06:49:26;24.00;43.70
70986;DHT22;58645;43.068;25.610;2023-05-08T06:51:52;24.20;43.90
70986;DHT22;58645;43.068;25.610;2023-05-08T06:54:18;24.80;43.20
70986;DHT22;58645;43.068;25.610;2023-05-08T06:56:44;24.90;41.90
70986;DHT22;58645;43.068;25.610;2023-05-08T06:59:10;25.10;41.30
70986;DHT22;58645;43.068;25.610;2023-05-08T07:01:35;25.30;41.50
70986;DHT22;58645;43.068;25.610;2023-05-08T07:04:04;25.30;40.80
70986;DHT22;58645;43.068;25.610;2023-05-08T07:06:30;25.50;40.60
70986;DHT22;58645;43.068;25.610;2023-05-08T07:08:56;26.20;40.00
70986;DHT22;58645;43.068;25.610;2023-05-08T07:11:22;26.90;39.30
70986;DHT22;58645;43.068;25.610;2023-05-08T07:13:48;27.50;38.00
70986;DHT22;58645;43.068;25.610;2023-05-08T07:16:14;27.60;36.90
70986;DHT22;58645;43.068;25.610;2023-05-08T07:18:40;27.70;37.30
70986;DHT22;58645;43.068;25.610;2023-05-08T07:21:06;27.70;36.30
70986;DHT22;58645;43.068;25.610;2023-05-08T07:23:32;28.00;36.90
70986;DHT22;58645;43.068;25.610;2023-05-08T07:25:58;28.00;36.70
70986;DHT22;58645;43.068;25.610;2023-05-08T07:28:24;28.50;36.20
70986;DHT22;58645;43.068;25.610;2023-05-08T07:30:50;28.10;35.50
70986;DHT22;58645;43.068;25.610;2023-05-08T07:33:16;28.40;35.50
70986;DHT22;58645;43.068;25.610;2023-05-08T07:35:42;28.60;35.50
70986;DHT22;58645;43.068;25.610;2023-05-08T07:38:08;28.80;34.90
70986;DHT22;58645;43.068;25.610;2023-05-08T07:40:34;28.00;36.60
70986;DHT22;58645;43.068;25.610;2023-05-08T07:42:59;28.20;36.70
70986;DHT22;58645;43.068;25.610;2023-05-08T07:45:25;28.00;36.10
70986;DHT22;58645;43.068;25.610;2023-05-08T07:47:53;28.30;36.10
70986;DHT22;58645;43.068;25.610;2023-05-08T07:50:19;28.40;35.00
70986;DHT22;58645;43.068;25.610;2023-05-08T07:52:46;28.60;35.10
70986;DHT22;58645;43.068;25.610;2023-05-08T07:55:11;29.10;35.40
70986;DHT22;58645;43.068;25.610;2023-05-08T07:57:42;29.40;34.70
70986;DHT22;58645;43.068;25.610;2023-05-08T08:00:10;29.60;35.10
70986;DHT22;58645;43.068;25.610;2023-05-08T08:02:37;29.70;33.80
70986;DHT22;58645;43.068;25.610;2023-05-08T08:05:06;30.00;34.00
70986;DHT22;58645;43.068;25.610;2023-05-08T08:07:32;30.40;33.00
70986;DHT22;58645;43.068;25.610;2023-05-08T08:09:58;30.40;32.60
70986;DHT22;58645;43.068;25.610;2023-05-08T08:12:24;30.00;33.70
70986;DHT22;58645;43.068;25.610;2023-05-08T08:14:50;29.80;34.20
70986;DHT22;58645;43.068;25.610;2023-05-08T08:17:16;29.50;35.10
70986;DHT22;58645;43.068;25.610;2023-05-08T08:19:42;29.50;35.50
70986;DHT22;58645;43.068;25.610;2023-05-08T08:22:08;29.50;35.00
70986;DHT22;58645;43.068;25.610;2023-05-08T08:24:34;29.70;35.40
70986;DHT22;58645;43.068;25.610;2023-05-08T08:27:00;29.80;34.10
70986;DHT22;58645;43.068;25.610;2023-05-08T08:29:25;29.50;35.20
70986;DHT22;58645;43.068;25.610;2023-05-08T08:31:51;29.50;35.30
70986;DHT22;58645;43.068;25.610;2023-05-08T08:34:17;29.80;34.50
70986;DHT22;58645;43.068;25.610;2023-05-08T08:36:43;29.90;34.70
70986;DHT22;58645;43.068;25.610;2023-05-08T08:39:08;29.20;34.20
70986;DHT22;58645;43.068;25.610;2023-05-08T08:41:34;29.20;35.40
70986;DHT22;58645;43.068;25.610;2023-05-08T08:44:00;29.30;34.70
70986;DHT22;58645;43.068;25.610;2023-05-08T08:46:27;29.30;35.00
70986;DHT22;58645;43.068;25.610;2023-05-08T08:48:54;29.00;35.30
70986;DHT22;58645;43.068;25.610;2023-05-08T08:51:31;29.30;35.30
70986;DHT22;58645;43.068;25.610;2023-05-08T08:54:08;30.10;35.90
70986;DHT22;58645;43.068;25.610;2023-05-08T08:56:35;30.80;33.40
70986;DHT22;58645;43.068;25.610;2023-05-08T08:59:03;31.50;33.40
70986;DHT22;58645;43.068;25.610;2023-05-08T09:01:32;31.80;31.20
70986;DHT22;58645;43.068;25.610;2023-05-08T09:03:58;32.20;30.80
70986;DHT22;58645;43.068;25.610;2023-05-08T09:06:24;32.10;30.60
70986;DHT22;58645;43.068;25.610;2023-05-08T09:08:54;32.20;32.50
70986;DHT22;58645;43.068;25.610;2023-05-08T09:11:23;32.40;31.20
70986;DHT22;58645;43.068;25.610;2023-05-08T09:13:49;32.60;31.30
70986;DHT22;58645;43.068;25.610;2023-05-08T09:16:16;32.70;31.60
70986;DHT22;58645;43.068;25.610;2023-05-08T09:18:42;32.40;32.30
70986;DHT22;58645;43.068;25.610;2023-05-08T09:21:08;32.30;34.90
70986;DHT22;58645;43.068;25.610;2023-05-08T09:24:22;31.80;33.90
70986;DHT22;58645;43.068;25.610;2023-05-08T09:29:18;30.60;36.00
70986;DHT22;58645;43.068;25.610;2023-05-08T09:31:51;30.80;35.70
70986;DHT22;58645;43.068;25.610;2023-05-08T09:34:29;30.90;35.50
70986;DHT22;58645;43.068;25.610;2023-05-08T09:39:30;32.20;33.60
70986;DHT22;58645;43.068;25.610;2023-05-08T09:41:57;32.80;32.50
70986;DHT22;58645;43.068;25.610;2023-05-08T09:44:23;33.10;32.40
70986;DHT22;58645;43.068;25.610;2023-05-08T09:46:49;33.10;32.30
70986;DHT22;58645;43.068;25.610;2023-05-08T09:49:18;33.60;30.50
70986;DHT22;58645;43.068;25.610;2023-05-08T09:51:51;33.40;30.80
70986;DHT22;58645;43.068;25.610;2023-05-08T09:54:20;33.40;30.80
70986;DHT22;58645;43.068;25.610;2023-05-08T09:56:46;33.00;31.60
70986;DHT22;58645;43.068;25.610;2023-05-08T09:59:25;32.60;31.10
70986;DHT22;58645;43.068;25.610;2023-05-08T10:01:52;32.90;30.80
70986;DHT22;58645;43.068;25.610;2023-05-08T10:04:33;33.30;29.80
70986;DHT22;58645;43.068;25.610;2023-05-08T10:07:00;33.40;27.30
70986;DHT22;58645;43.068;25.610;2023-05-08T10:09:26;33.30;29.70
70986;DHT22;58645;43.068;25.610;2023-05-08T10:11:52;33.50;28.80
70986;DHT22;58645;43.068;25.610;2023-05-08T10:14:19;33.40;29.10
70986;DHT22;58645;43.068;25.610;2023-05-08T10:16:47;33.50;28.30
70986;DHT22;58645;43.068;25.610;2023-05-08T10:19:18;33.20;28.90
70986;DHT22;58645;43.068;25.610;2023-05-08T10:21:49;32.90;28.20
70986;DHT22;58645;43.068;25.610;2023-05-08T10:24:18;32.60;28.40
70986;DHT22;58645;43.068;25.610;2023-05-08T10:26:56;32.50;28.80
70986;DHT22;58645;43.068;25.610;2023-05-08T10:29:31;32.50;28.20
70986;DHT22;58645;43.068;25.610;2023-05-08T10:31:58;32.40;28.50
70986;DHT22;58645;43.068;25.610;2023-05-08T10:34:26;32.60;28.80
70986;DHT22;58645;43.068;25.610;2023-05-08T10:36:53;32.50;28.40
70986;DHT22;58645;43.068;25.610;2023-05-08T10:39:19;32.70;28.20
70986;DHT22;58645;43.068;25.610;2023-05-08T10:41:47;32.80;28.50
70986;DHT22;58645;43.068;25.610;2023-05-08T10:44:14;32.70;29.40
70986;DHT22;58645;43.068;25.610;2023-05-08T10:47:03;32.40;28.70
70986;DHT22;58645;43.068;25.610;2023-05-08T10:49:50;31.70;29.60
70986;DHT22;58645;43.068;25.610;2023-05-08T10:57:29;32.10;31.30
70986;DHT22;58645;43.068;25.610;2023-05-08T10:59:55;32.30;30.80
70986;DHT22;58645;43.068;25.610;2023-05-08T11:02:28;32.60;30.70
70986;DHT22;58645;43.068;25.610;2023-05-08T11:05:15;32.90;30.70
70986;DHT22;58645;43.068;25.610;2023-05-08T11:07:57;32.80;30.50
70986;DHT22;58645;43.068;25.610;2023-05-08T11:10:30;32.70;29.30
70986;DHT22;58645;43.068;25.610;2023-05-08T11:12:57;32.80;29.70
70986;DHT22;58645;43.068;25.610;2023-05-08T11:15:38;32.60;29.70
70986;DHT22;58645;43.068;25.610;2023-05-08T11:18:10;32.30;31.00
70986;DHT22;58645;43.068;25.610;2023-05-08T11:20:54;32.20;30.40
70986;DHT22;58645;43.068;25.610;2023-05-08T11:23:24;31.40;31.30
70986;DHT22;58645;43.068;25.610;2023-05-08T11:26:17;30.40;33.80
70986;DHT22;58645;43.068;25.610;2023-05-08T11:31:18;29.30;37.20
70986;DHT22;58645;43.068;25.610;2023-05-08T11:33:45;28.90;37.30
70986;DHT22;58645;43.068;25.610;2023-05-08T11:39:09;28.70;38.40
70986;DHT22;58645;43.068;25.610;2023-05-08T11:41:40;28.70;38.00
70986;DHT22;58645;43.068;25.610;2023-05-08T11:46:52;28.80;38.20
70986;DHT22;58645;43.068;25.610;2023-05-08T11:49:26;28.10;39.00
70986;DHT22;58645;43.068;25.610;2023-05-08T11:51:54;28.00;40.10
70986;DHT22;58645;43.068;25.610;2023-05-08T11:54:23;28.20;39.60
70986;DHT22;58645;43.068;25.610;2023-05-08T11:56:52;28.30;39.50
70986;DHT22;58645;43.068;25.610;2023-05-08T11:59:18;28.90;38.30
70986;DHT22;58645;43.068;25.610;2023-05-08T12:01:47;28.60;37.80
70986;DHT22;58645;43.068;25.610;2023-05-08T12:04:13;28.30;38.80
70986;DHT22;58645;43.068;25.610;2023-05-08T12:06:40;27.50;40.80
70986;DHT22;58645;43.068;25.610;2023-05-08T12:09:15;27.20;41.80
70986;DHT22;58645;43.068;25.610;2023-05-08T12:11:42;27.00;41.90
70986;DHT22;58645;43.068;25.610;2023-05-08T12:14:10;26.90;41.80
70986;DHT22;58645;43.068;25.610;2023-05-08T12:16:37;26.90;41.90
70986;DHT22;58645;43.068;25.610;2023-05-08T12:19:09;26.90;41.80
70986;DHT22;58645;43.068;25.610;2023-05-08T12:21:35;26.80;42.20
70986;DHT22;58645;43.068;25.610;2023-05-08T12:24:09;26.60;42.90
70986;DHT22;58645;43.068;25.610;2023-05-08T12:26:36;26.50;42.90
70986;DHT22;58645;43.068;25.610;2023-05-08T12:29:04;26.30;43.50
70986;DHT22;58645;43.068;25.610;2023-05-08T12:31:31;26.30;44.20
70986;DHT22;58645;43.068;25.610;2023-05-08T12:33:57;25.90;43.80
70986;DHT22;58645;43.068;25.610;2023-05-08T12:36:23;25.40;45.70
70986;DHT22;58645;43.068;25.610;2023-05-08T12:38:49;25.20;46.50
70986;DHT22;58645;43.068;25.610;2023-05-08T12:41:22;25.10;47.20
70986;DHT22;58645;43.068;25.610;2023-05-08T12:43:49;25.10;47.50
70986;DHT22;58645;43.068;25.610;2023-05-08T12:46:14;25.00;48.10
70986;DHT22;58645;43.068;25.610;2023-05-08T12:48:42;24.60;49.10
70986;DHT22;58645;43.068;25.610;2023-05-08T12:51:09;24.30;50.50
70986;DHT22;58645;43.068;25.610;2023-05-08T12:53:36;24.20;50.60
70986;DHT22;58645;43.068;25.610;2023-05-08T12:56:03;24.10;51.40
70986;DHT22;58645;43.068;25.610;2023-05-08T12:58:31;23.70;51.60
70986;DHT22;58645;43.068;25.610;2023-05-08T13:01:09;23.60;52.10
70986;DHT22;58645;43.068;25.610;2023-05-08T13:03:38;23.40;52.50
70986;DHT22;58645;43.068;25.610;2023-05-08T13:06:04;23.10;52.90
70986;DHT22;58645;43.068;25.610;2023-05-08T13:08:34;23.00;53.10
70986;DHT22;58645;43.068;25.610;2023-05-08T13:11:02;22.80;53.30
70986;DHT22;58645;43.068;25.610;2023-05-08T13:13:31;22.70;54.30
70986;DHT22;58645;43.068;25.610;2023-05-08T13:16:00;22.50;55.00
70986;DHT22;58645;43.068;25.610;2023-05-08T13:18:26;22.40;55.00
70986;DHT22;58645;43.068;25.610;2023-05-08T13:20:55;22.10;55.10
70986;DHT22;58645;43.068;25.610;2023-05-08T13:23:22;21.80;55.60
70986;DHT22;58645;43.068;25.610;2023-05-08T13:25:48;21.60;56.10
70986;DHT22;58645;43.068;25.610;2023-05-08T13:28:14;21.50;56.20
70986;DHT22;58645;43.068;25.610;2023-05-08T13:30:40;21.30;56.80
70986;DHT22;58645;43.068;25.610;2023-05-08T13:33:06;21.00;57.00
70986;DHT22;58645;43.068;25.610;2023-05-08T13:35:32;20.80;58.00
70986;DHT22;58645;43.068;25.610;2023-05-08T13:37:59;20.70;58.20
70986;DHT22;58645;43.068;25.610;2023-05-08T13:40:25;20.60;58.10
70986;DHT22;58645;43.068;25.610;2023-05-08T13:42:51;20.50;59.10
70986;DHT22;58645;43.068;25.610;2023-05-08T13:45:17;20.30;59.70
70986;DHT22;58645;43.068;25.610;2023-05-08T13:47:47;20.10;60.20
70986;DHT22;58645;43.068;25.610;2023-05-08T13:50:14;19.90;60.90
70986;DHT22;58645;43.068;25.610;2023-05-08T13:52:40;19.60;61.60
70986;DHT22;58645;43.068;25.610;2023-05-08T13:55:09;19.40;62.40
70986;DHT22;58645;43.068;25.610;2023-05-08T13:57:34;19.30;62.90
70986;DHT22;58645;43.068;25.610;2023-05-08T14:00:00;19.20;63.50
70986;DHT22;58645;43.068;25.610;2023-05-08T14:02:26;19.10;64.50
70986;DHT22;58645;43.068;25.610;2023-05-08T14:04:52;19.00;64.60
70986;DHT22;58645;43.068;25.610;2023-05-08T14:07:18;18.80;65.00
70986;DHT22;58645;43.068;25.610;2023-05-08T14:09:45;18.70;65.40
70986;DHT22;58645;43.068;25.610;2023-05-08T14:12:10;18.40;66.10
70986;DHT22;58645;43.068;25.610;2023-05-08T14:14:36;18.40;66.50
70986;DHT22;58645;43.068;25.610;2023-05-08T14:17:06;18.30;66.50
70986;DHT22;58645;43.068;25.610;2023-05-08T14:19:32;18.20;66.70
70986;DHT22;58645;43.068;25.610;2023-05-08T14:21:58;18.10;67.00
70986;DHT22;58645;43.068;25.610;2023-05-08T14:24:24;18.10;67.60
70986;DHT22;58645;43.068;25.610;2023-05-08T14:26:49;17.90;68.10
70986;DHT22;58645;43.068;25.610;2023-05-08T14:29:15;17.70;69.70
70986;DHT22;58645;43.068;25.610;2023-05-08T14:31:43;17.70;73.30
70986;DHT22;58645;43.068;25.610;2023-05-08T14:34:09;17.50;77.80
70986;DHT22;58645;43.068;25.610;2023-05-08T14:36:35;17.30;81.20
70986;DHT22;58645;43.068;25.610;2023-05-08T14:39:01;17.10;81.60
70986;DHT22;58645;43.068;25.610;2023-05-08T14:41:30;16.90;82.80
70986;DHT22;58645;43.068;25.610;2023-05-08T14:43:56;16.70;88.50
70986;DHT22;58645;43.068;25.610;2023-05-08T14:46:22;16.60;92.80
70986;DHT22;58645;43.068;25.610;2023-05-08T14:48:49;16.50;99.30
70986;DHT22;58645;43.068;25.610;2023-05-08T14:51:15;16.60;99.90
70986;DHT22;58645;43.068;25.610;2023-05-08T14:53:41;16.60;99.90
70986;DHT22;58645;43.068;25.610;2023-05-08T14:56:07;16.50;99.90
70986;DHT22;58645;43.068;25.610;2023-05-08T14:58:33;16.40;99.90
70986;DHT22;58645;43.068;25.610;2023-05-08T15:00:58;16.20;99.90
70986;DHT22;58645;43.068;25.610;2023-05-08T15:03:24;16.00;99.90
70986;DHT22;58645;43.068;25.610;2023-05-08T15:05:50;15.90;99.90
70986;DHT22;58645;43.068;25.610;2023-05-08T15:08:16;15.90;99.90
70986;DHT22;58645;43.068;25.610;2023-05-08T15:10:43;15.90;99.90
70986;DHT22;58645;43.068;25.610;2023-05-08T15:13:08;15.90;99.90
70986;DHT22;58645;43.068;25.610;2023-05-08T15:15:34;15.80;99.90
70986;DHT22;58645;43.068;25.610;2023-05-08T15:18:00;15.80;99.90
70986;DHT22;58645;43.068;25.610;2023-05-08T15:20:25;15.60;99.90
70986;DHT22;58645;43.068;25.610;2023-05-08T15:22:51;15.60;99.90
70986;DHT22;58645;43.068;25.610;2023-05-08T15:25:18;15.60;99.90
70986;DHT22;58645;43.068;25.610;2023-05-08T15:27:44;15.60;99.90
70986;DHT22;58645;43.068;25.610;2023-05-08T15:30:11;15.50;99.90
70986;DHT22;58645;43.068;25.610;2023-05-08T15:32:37;15.50;99.90
70986;DHT22;58645;43.068;25.610;2023-05-08T15:35:05;15.40;99.90
70986;DHT22;58645;43.068;25.610;2023-05-08T15:37:31;15.30;99.90
70986;DHT22;58645;43.068;25.610;2023-05-08T15:39:56;15.20;99.90
70986;DHT22;58645;43.068;25.610;2023-05-08T15:42:22;15.20;99.90
70986;DHT22;58645;43.068;25.610;2023-05-08T15:44:48;15.10;99.90
70986;DHT22;58645;43.068;25.610;2023-05-08T15:47:13;15.00;99.90
70986;DHT22;58645;43.068;25.610;2023-05-08T15:49:39;15.10;99.90
70986;DHT22;58645;43.068;25.610;2023-05-08T15:52:05;15.10;99.90
70986;DHT22;58645;43.068;25.610;2023-05-08T15:54:31;15.10;99.90
70986;DHT22;58645;43.068;25.610;2023-05-08T15:56:56;15.10;99.90
70986;DHT22;58645;43.068;25.610;2023-05-08T15:59:22;15.00;99.90
70986;DHT22;58645;43.068;25.610;2023-05-08T16:01:48;15.00;99.90
70986;DHT22;58645;43.068;25.610;2023-05-08T16:04:13;15.00;99.90
70986;DHT22;58645;43.068;25.610;2023-05-08T16:06:39;14.90;99.90